createdAt,value
2023-02-20T00:01:05.421Z,10.58
2023-02-20T00:03:33.302Z,10.58
2023-02-20T00:06:01.420Z,10.58
2023-02-20T00:08:29.481Z,10.60
2023-02-20T00:10:57.845Z,10.49
2023-02-20T00:13:25.794Z,10.51
2023-02-20T00:15:53.415Z,10.54
2023-02-20T00:18:21.237Z,10.64
2023-02-20T00:20:48.875Z,10.56
2023-02-20T00:23:17.785Z,10.55
2023-02-20T00:25:45.427Z,10.48
2023-02-20T00:28:13.084Z,10.55
2023-02-20T00:30:41.240Z,10.63
2023-02-20T00:33:09.171Z,10.59
2023-02-20T00:35:39.023Z,10.64
2023-02-20T00:38:07.062Z,10.66
2023-02-20T00:40:35.667Z,10.75
2023-02-20T00:43:03.401Z,10.74
2023-02-20T00:45:30.951Z,10.80
2023-02-20T00:47:58.560Z,10.71
2023-02-20T00:50:26.677Z,10.69
2023-02-20T00:52:54.243Z,10.67
2023-02-20T00:55:21.957Z,10.84
2023-02-20T00:57:49.859Z,10.75
2023-02-20T01:00:24.708Z,10.78
2023-02-20T01:02:52.669Z,10.71
2023-02-20T01:05:21.071Z,10.65
2023-02-20T01:07:49.460Z,10.59
2023-02-20T01:10:17.491Z,10.59
2023-02-20T01:12:45.464Z,10.81
2023-02-20T01:15:16.004Z,10.67
2023-02-20T01:17:43.914Z,10.83
2023-02-20T01:20:12.819Z,10.75
2023-02-20T01:22:41.736Z,10.74
2023-02-20T01:25:12.086Z,10.70
2023-02-20T01:27:39.634Z,10.83
2023-02-20T01:30:09.216Z,10.74
2023-02-20T01:32:36.988Z,10.81
2023-02-20T01:35:05.268Z,10.65
2023-02-20T01:37:35.606Z,10.66
2023-02-20T01:40:04.768Z,10.66
2023-02-20T01:42:35.186Z,10.61
2023-02-20T01:45:22.363Z,10.70
2023-02-20T01:47:53.040Z,10.63
2023-02-20T01:50:26.924Z,10.64
2023-02-20T01:52:58.793Z,10.70
2023-02-20T01:56:02.017Z,10.70
2023-02-20T01:58:36.220Z,10.81
2023-02-20T02:01:06.666Z,10.72
2023-02-20T02:03:39.432Z,10.65
2023-02-20T02:06:09.846Z,10.63
2023-02-20T02:08:42.153Z,10.75
2023-02-20T02:11:13.483Z,10.69
2023-02-20T02:13:43.978Z,10.77
2023-02-20T02:16:27.654Z,10.72
2023-02-20T02:19:18.370Z,10.68
2023-02-20T02:21:58.443Z,10.63
2023-02-20T02:24:44.652Z,10.52
2023-02-20T02:27:41.991Z,10.50
2023-02-20T02:30:34.196Z,10.56
2023-02-20T02:33:32.689Z,10.66
2023-02-20T02:36:17.883Z,10.68
2023-02-20T02:39:11.505Z,10.56
2023-02-20T02:42:00.284Z,10.53
2023-02-20T02:44:37.487Z,10.57
2023-02-20T02:47:13.351Z,10.51
2023-02-20T02:49:59.389Z,10.62
2023-02-20T02:52:47.492Z,10.65
2023-02-20T02:55:20.654Z,10.73
2023-02-20T02:57:48.466Z,10.76
2023-02-20T03:00:30.258Z,10.62
2023-02-20T03:03:22.186Z,10.70
2023-02-20T03:06:30.750Z,10.64
2023-02-20T03:09:13.297Z,10.77
2023-02-20T03:11:42.661Z,10.74
2023-02-20T03:14:35.568Z,10.62
2023-02-20T03:17:13.963Z,10.50
2023-02-20T03:19:47.031Z,10.56
2023-02-20T03:22:27.204Z,10.62
2023-02-20T03:25:01.587Z,10.63
2023-02-20T03:27:47.827Z,10.73
2023-02-20T03:30:24.932Z,10.73
2023-02-20T03:33:18.451Z,10.76
2023-02-20T03:36:07.670Z,10.76
2023-02-20T03:38:56.640Z,10.61
2023-02-20T03:41:47.549Z,10.73
2023-02-20T03:44:17.352Z,10.65
2023-02-20T03:46:49.040Z,10.60
2023-02-20T03:49:21.601Z,10.55
2023-02-20T03:51:49.876Z,10.71
2023-02-20T03:54:31.863Z,10.66
2023-02-20T03:57:09.183Z,10.62
2023-02-20T04:00:26.652Z,10.81
2023-02-20T04:03:00.329Z,10.82
2023-02-20T04:05:38.277Z,10.66
2023-02-20T04:08:16.380Z,10.69
2023-02-20T04:11:00.254Z,10.73
2023-02-20T04:13:30.900Z,10.79
2023-02-20T04:16:02.194Z,10.71
2023-02-20T04:18:30.801Z,10.70
2023-02-20T04:21:02.671Z,10.68
2023-02-20T04:23:39.314Z,10.55
2023-02-20T04:26:16.597Z,10.43
2023-02-20T04:28:48.720Z,10.53
2023-02-20T04:31:21.329Z,10.61
2023-02-20T04:33:50.166Z,10.46
2023-02-20T04:36:24.643Z,10.37
2023-02-20T04:38:53.636Z,10.44
2023-02-20T04:41:25.959Z,10.51
2023-02-20T04:44:14.481Z,10.61
2023-02-20T04:46:42.321Z,10.71
2023-02-20T04:49:10.618Z,10.71
2023-02-20T04:51:40.175Z,10.63
2023-02-20T04:54:08.231Z,10.58
2023-02-20T04:56:35.804Z,10.53
2023-02-20T04:59:07.119Z,10.45
2023-02-20T05:01:34.795Z,10.46
2023-02-20T05:04:02.394Z,10.55
2023-02-20T05:06:29.938Z,10.46
2023-02-20T05:08:58.076Z,10.43
2023-02-20T05:11:26.498Z,10.43
2023-02-20T05:13:54.440Z,10.29
2023-02-20T05:16:22.332Z,10.54
2023-02-20T05:18:50.340Z,10.43
2023-02-20T05:21:36.087Z,10.33
2023-02-20T05:24:06.894Z,10.43
2023-02-20T05:26:35.944Z,10.54
2023-02-20T05:29:04.279Z,10.61
2023-02-20T05:31:32.274Z,10.36
2023-02-20T05:33:59.952Z,10.43
2023-02-20T05:36:28.089Z,10.49
2023-02-20T05:38:55.987Z,10.46
2023-02-20T05:41:23.895Z,10.52
2023-02-20T05:43:51.664Z,10.24
2023-02-20T05:46:19.180Z,10.26
2023-02-20T05:48:51.308Z,10.34
2023-02-20T05:51:28.636Z,10.40
2023-02-20T05:53:57.398Z,10.43
2023-02-20T05:56:26.124Z,10.41
2023-02-20T05:58:53.572Z,10.51
2023-02-20T06:01:28.128Z,10.52
2023-02-20T06:03:55.890Z,10.40
2023-02-20T06:06:24.155Z,10.48
2023-02-20T06:08:52.143Z,10.52
2023-02-20T06:11:19.620Z,10.59
2023-02-20T06:13:47.236Z,10.56
2023-02-20T06:16:26.305Z,10.40
2023-02-20T06:18:54.338Z,10.53
2023-02-20T06:21:23.538Z,10.47
2023-02-20T06:23:53.604Z,10.54
2023-02-20T06:26:23.157Z,10.63
2023-02-20T06:28:50.867Z,10.61
2023-02-20T06:31:28.522Z,10.60
2023-02-20T06:33:56.123Z,10.66
2023-02-20T06:36:29.932Z,10.70
2023-02-20T06:38:58.413Z,10.61
2023-02-20T06:41:26.599Z,10.70
2023-02-20T06:43:54.708Z,10.71
2023-02-20T06:46:23.428Z,10.69
2023-02-20T06:48:54.439Z,10.73
2023-02-20T06:51:30.800Z,10.87
2023-02-20T06:53:59.926Z,11.01
2023-02-20T06:56:33.220Z,10.93
2023-02-20T06:59:03.163Z,10.82
2023-02-20T07:01:43.714Z,10.98
2023-02-20T07:04:17.853Z,11.05
2023-02-20T07:06:45.361Z,11.20
2023-02-20T07:09:13.875Z,11.31
2023-02-20T07:11:42.574Z,11.09
2023-02-20T07:14:10.288Z,11.29
2023-02-20T07:16:38.310Z,11.53
2023-02-20T07:19:05.892Z,11.62
2023-02-20T07:21:33.889Z,11.67
2023-02-20T07:24:01.710Z,11.68
2023-02-20T07:26:30.361Z,11.62
2023-02-20T07:28:58.893Z,11.57
2023-02-20T07:31:28.060Z,11.58
2023-02-20T07:33:56.189Z,11.51
2023-02-20T07:36:24.377Z,11.49
2023-02-20T07:39:00.255Z,11.52
2023-02-20T07:41:32.143Z,11.64
2023-02-20T07:44:00.325Z,11.42
2023-02-20T07:46:28.081Z,11.58
2023-02-20T07:48:55.622Z,11.71
2023-02-20T07:51:23.539Z,11.73
2023-02-20T07:53:54.897Z,11.82
2023-02-20T07:56:23.845Z,11.86
2023-02-20T07:58:52.167Z,11.82
2023-02-20T08:01:20.711Z,11.67
2023-02-20T08:03:48.941Z,11.84
2023-02-20T08:06:18.285Z,11.87
2023-02-20T08:08:50.397Z,11.94
2023-02-20T08:11:19.652Z,11.87
2023-02-20T08:13:47.392Z,11.99
2023-02-20T08:16:15.920Z,11.86
2023-02-20T08:18:44.239Z,11.95
2023-02-20T08:21:12.463Z,11.74
2023-02-20T08:23:40.073Z,11.86
2023-02-20T08:26:08.084Z,11.95
2023-02-20T08:28:35.984Z,12.03
2023-02-20T08:31:04.805Z,12.10
2023-02-20T08:33:32.297Z,12.28
2023-02-20T08:36:00.105Z,12.28
2023-02-20T08:38:38.667Z,12.29
2023-02-20T08:41:09.870Z,12.45
2023-02-20T08:43:39.599Z,12.43
2023-02-20T08:46:07.840Z,12.47
2023-02-20T08:48:36.136Z,12.61
2023-02-20T08:51:05.419Z,12.73
2023-02-20T08:53:34.073Z,12.73
2023-02-20T08:56:02.374Z,12.90
2023-02-20T08:58:29.878Z,12.69
2023-02-20T09:00:57.802Z,12.99
2023-02-20T09:03:27.286Z,13.17
2023-02-20T09:05:55.255Z,13.06
2023-02-20T09:08:23.388Z,13.04
2023-02-20T09:10:51.891Z,13.33
2023-02-20T09:13:19.699Z,13.44
2023-02-20T09:15:47.273Z,13.61
2023-02-20T09:18:14.887Z,13.72
2023-02-20T09:20:42.918Z,13.80
2023-02-20T09:23:11.422Z,13.93
2023-02-20T09:25:39.388Z,14.25
2023-02-20T09:28:08.992Z,14.43
2023-02-20T09:30:37.665Z,14.30
2023-02-20T09:33:05.395Z,14.30
2023-02-20T09:35:32.973Z,14.52
2023-02-20T09:38:02.070Z,14.51
2023-02-20T09:40:31.169Z,14.87
2023-02-20T09:43:41.292Z,15.60
2023-02-20T09:46:22.108Z,16.31
2023-02-20T09:49:02.925Z,16.52
2023-02-20T09:51:35.093Z,16.74
2023-02-20T09:54:03.500Z,17.35
2023-02-20T09:56:41.186Z,18.46
2023-02-20T09:59:27.749Z,18.90
2023-02-20T10:02:02.528Z,20.33
2023-02-20T10:04:38.794Z,20.75
2023-02-20T10:07:28.326Z,21.06
2023-02-20T10:09:57.579Z,20.97
2023-02-20T10:12:46.925Z,20.62
2023-02-20T10:15:49.625Z,20.46
2023-02-20T10:18:33.060Z,20.36
2023-02-20T10:21:07.654Z,21.34
2023-02-20T10:24:04.950Z,22.82
2023-02-20T10:26:37.804Z,23.10
2023-02-20T10:29:22.936Z,22.40
2023-02-20T10:32:29.411Z,22.92
2023-02-20T10:35:09.979Z,22.08
2023-02-20T10:37:47.831Z,21.62
2023-02-20T10:40:28.717Z,20.84
2023-02-20T10:43:10.532Z,21.36
2023-02-20T10:46:00.078Z,22.69
2023-02-20T10:48:32.056Z,22.51
2023-02-20T10:51:14.478Z,22.29
2023-02-20T10:53:57.685Z,21.48
2023-02-20T10:56:37.992Z,23.16
2023-02-20T10:59:34.543Z,23.25
2023-02-20T11:02:07.203Z,23.97
2023-02-20T11:04:39.921Z,23.85
2023-02-20T11:07:11.456Z,21.74
2023-02-20T11:09:40.638Z,21.06
2023-02-20T11:12:18.790Z,21.03
2023-02-20T11:14:49.314Z,20.57
2023-02-20T11:17:21.235Z,20.03
2023-02-20T11:19:50.192Z,20.29
2023-02-20T11:22:38.364Z,19.90
2023-02-20T11:25:36.751Z,20.44
2023-02-20T11:28:18.609Z,20.32
2023-02-20T11:30:50.432Z,20.80
2023-02-20T11:33:24.024Z,21.00
2023-02-20T11:35:54.050Z,20.25
2023-02-20T11:38:21.675Z,21.32
2023-02-20T11:41:04.448Z,21.12
2023-02-20T11:43:35.615Z,19.99
2023-02-20T11:46:12.700Z,19.68
2023-02-20T11:49:09.073Z,20.48
2023-02-20T11:51:48.505Z,19.88
2023-02-20T11:54:25.891Z,19.96
2023-02-20T11:56:59.947Z,20.67
2023-02-20T11:59:43.282Z,21.05
2023-02-20T12:02:17.206Z,21.18
2023-02-20T12:05:00.900Z,20.51
2023-02-20T12:07:30.604Z,19.82
2023-02-20T12:10:05.970Z,19.56
2023-02-20T12:12:34.575Z,19.19
2023-02-20T12:15:02.748Z,18.66
2023-02-20T12:17:51.311Z,17.78
2023-02-20T12:20:26.844Z,17.87
2023-02-20T12:23:16.220Z,17.83
2023-02-20T12:26:21.454Z,17.87
2023-02-20T12:28:58.228Z,19.60
2023-02-20T12:31:38.244Z,21.05
2023-02-20T12:34:12.532Z,21.52
2023-02-20T12:36:43.240Z,21.64
2023-02-20T12:39:26.415Z,21.29
2023-02-20T12:42:20.599Z,22.41
2023-02-20T12:45:12.005Z,22.67
2023-02-20T12:47:44.201Z,22.41
2023-02-20T12:50:37.675Z,23.22
2023-02-20T12:53:05.223Z,22.71
2023-02-20T12:55:40.081Z,22.61
2023-02-20T12:58:14.112Z,22.10
2023-02-20T13:00:47.357Z,21.27
2023-02-20T13:03:18.967Z,22.07
2023-02-20T13:05:49.067Z,21.64
2023-02-20T13:08:33.080Z,22.45
2023-02-20T13:11:05.472Z,20.67
2023-02-20T13:14:11.726Z,19.62
2023-02-20T13:16:52.126Z,19.53
2023-02-20T13:19:37.903Z,19.70
2023-02-20T13:22:06.573Z,19.89
2023-02-20T13:24:36.831Z,19.79
2023-02-20T13:27:08.179Z,19.66
2023-02-20T13:30:10.903Z,20.33
2023-02-20T13:32:39.085Z,19.77
2023-02-20T13:35:45.543Z,18.59
2023-02-20T13:38:20.754Z,18.32
2023-02-20T13:40:58.894Z,18.18
2023-02-20T13:43:33.885Z,18.91
2023-02-20T13:46:14.721Z,19.57
2023-02-20T13:48:42.593Z,19.93
2023-02-20T13:51:16.692Z,18.88
2023-02-20T13:54:16.064Z,18.90
2023-02-20T13:56:59.587Z,20.01
2023-02-20T13:59:29.205Z,20.67
2023-02-20T14:02:12.661Z,21.31
2023-02-20T14:04:52.947Z,20.62
2023-02-20T14:07:39.548Z,20.23
2023-02-20T14:10:22.562Z,20.48
2023-02-20T14:12:58.849Z,20.82
2023-02-20T14:15:27.654Z,20.46
2023-02-20T14:17:57.403Z,19.92
2023-02-20T14:20:33.318Z,19.89
2023-02-20T14:23:19.115Z,19.72
2023-02-20T14:26:02.110Z,19.57
2023-02-20T14:28:31.995Z,19.38
2023-02-20T14:31:38.572Z,18.98
2023-02-20T14:34:16.352Z,19.36
2023-02-20T14:37:12.124Z,20.18
2023-02-20T14:39:53.015Z,20.14
2023-02-20T14:42:24.670Z,20.15
2023-02-20T14:45:01.581Z,20.23
2023-02-20T14:47:31.748Z,20.42
2023-02-20T14:50:33.605Z,21.60
2023-02-20T14:53:15.831Z,21.84
2023-02-20T14:55:45.043Z,22.57
2023-02-20T14:58:23.543Z,22.99
2023-02-20T15:00:53.605Z,22.73
2023-02-20T15:03:31.014Z,23.40
2023-02-20T15:06:04.605Z,24.62
2023-02-20T15:08:35.988Z,25.06
2023-02-20T15:11:13.668Z,24.85
2023-02-20T15:13:44.523Z,25.43
2023-02-20T15:16:35.702Z,25.23
2023-02-20T15:19:20.156Z,25.20
2023-02-20T15:21:57.606Z,23.59
2023-02-20T15:24:29.659Z,23.52
2023-02-20T15:27:15.922Z,23.65
2023-02-20T15:29:46.439Z,23.31
2023-02-20T15:32:25.249Z,23.03
2023-02-20T15:34:56.017Z,22.94
2023-02-20T15:37:39.152Z,22.53
2023-02-20T15:40:21.326Z,21.32
2023-02-20T15:42:50.333Z,20.46
2023-02-20T15:45:18.668Z,19.06
2023-02-20T15:47:47.220Z,18.42
2023-02-20T15:50:15.685Z,18.40
2023-02-20T15:52:45.674Z,18.15
2023-02-20T15:55:17.712Z,18.10
2023-02-20T15:57:47.666Z,17.73
2023-02-20T16:00:24.366Z,17.51
2023-02-20T16:02:52.461Z,17.09
2023-02-20T16:05:21.330Z,16.81
2023-02-20T16:07:48.981Z,16.69
2023-02-20T16:10:20.083Z,16.75
2023-02-20T16:12:50.916Z,16.76
2023-02-20T16:15:25.295Z,16.66
2023-02-20T16:17:54.172Z,16.64
2023-02-20T16:20:25.855Z,16.17
2023-02-20T16:22:54.343Z,16.04
2023-02-20T16:25:24.022Z,15.96
2023-02-20T16:27:55.984Z,15.79
2023-02-20T16:30:33.216Z,15.70
2023-02-20T16:33:22.176Z,15.54
2023-02-20T16:35:54.103Z,15.40
2023-02-20T16:38:24.830Z,15.24
2023-02-20T16:40:54.973Z,15.20
2023-02-20T16:43:23.859Z,14.90
2023-02-20T16:45:51.515Z,14.74
2023-02-20T16:48:21.839Z,14.71
2023-02-20T16:50:53.699Z,14.64
2023-02-20T16:53:21.773Z,14.56
2023-02-20T16:55:51.809Z,14.51
2023-02-20T16:58:20.330Z,14.45
2023-02-20T17:00:57.573Z,14.36
2023-02-20T17:03:27.791Z,14.12
2023-02-20T17:05:59.728Z,13.97
2023-02-20T17:08:28.160Z,13.85
2023-02-20T17:10:56.036Z,13.72
2023-02-20T17:13:23.538Z,13.61
2023-02-20T17:15:51.647Z,13.63
2023-02-20T17:18:20.223Z,13.49
2023-02-20T17:20:48.363Z,13.50
2023-02-20T17:23:16.821Z,13.29
2023-02-20T17:25:44.425Z,13.19
2023-02-20T17:28:15.687Z,13.36
2023-02-20T17:30:43.583Z,13.21
2023-02-20T17:33:11.603Z,13.26
2023-02-20T17:35:39.497Z,13.21
2023-02-20T17:38:08.022Z,13.07
2023-02-20T17:40:37.917Z,12.92
2023-02-20T17:43:05.972Z,12.86
2023-02-20T17:45:34.511Z,13.00
2023-02-20T17:48:05.377Z,12.87
2023-02-20T17:50:34.117Z,12.71
2023-02-20T17:53:02.520Z,12.70
2023-02-20T17:55:31.676Z,12.57
2023-02-20T17:58:01.010Z,12.49
2023-02-20T18:00:29.014Z,12.45
2023-02-20T18:02:56.915Z,12.32
2023-02-20T18:05:25.665Z,12.28
2023-02-20T18:07:53.725Z,12.25
2023-02-20T18:10:22.125Z,12.25
2023-02-20T18:13:02.659Z,12.20
2023-02-20T18:15:33.173Z,12.09
2023-02-20T18:18:01.986Z,12.04
2023-02-20T18:20:30.468Z,12.04
2023-02-20T18:22:59.859Z,12.03
2023-02-20T18:25:39.674Z,12.00
2023-02-20T18:28:09.577Z,11.97
2023-02-20T18:30:38.067Z,12.02
2023-02-20T18:33:05.862Z,12.07
2023-02-20T18:35:34.564Z,12.15
2023-02-20T18:38:03.070Z,12.13
2023-02-20T18:40:31.151Z,11.99
2023-02-20T18:42:59.209Z,11.83
2023-02-20T18:45:26.794Z,11.78
2023-02-20T18:47:55.339Z,11.70
2023-02-20T18:50:23.922Z,11.58
2023-02-20T18:52:51.657Z,11.47
2023-02-20T18:55:20.340Z,11.37
2023-02-20T18:57:49.221Z,11.27
2023-02-20T19:00:25.765Z,11.28
2023-02-20T19:02:55.564Z,11.36
2023-02-20T19:05:24.829Z,11.43
2023-02-20T19:07:53.514Z,11.56
2023-02-20T19:10:24.521Z,11.52
2023-02-20T19:12:53.631Z,11.39
2023-02-20T19:15:22.695Z,11.33
2023-02-20T19:17:51.401Z,11.41
2023-02-20T19:20:28.613Z,11.36
2023-02-20T19:22:58.527Z,11.21
2023-02-20T19:25:26.731Z,11.13
2023-02-20T19:27:54.314Z,11.14
2023-02-20T19:30:22.120Z,11.16
2023-02-20T19:32:50.264Z,11.11
2023-02-20T19:35:18.502Z,11.09
2023-02-20T19:37:46.018Z,11.16
2023-02-20T19:40:13.598Z,11.11
2023-02-20T19:42:41.626Z,11.14
2023-02-20T19:45:10.292Z,11.13
2023-02-20T19:47:38.128Z,11.12
2023-02-20T19:50:06.483Z,11.04
2023-02-20T19:52:34.393Z,10.96
2023-02-20T19:55:02.408Z,10.98
2023-02-20T19:57:30.751Z,10.97
2023-02-20T19:59:58.913Z,10.77
2023-02-20T20:02:27.148Z,10.64
2023-02-20T20:04:55.349Z,10.53
2023-02-20T20:07:24.448Z,10.52
2023-02-20T20:09:52.432Z,10.49
2023-02-20T20:12:39.331Z,10.41
2023-02-20T20:15:08.145Z,10.39
2023-02-20T20:17:36.606Z,10.38
2023-02-20T20:20:06.808Z,10.37
2023-02-20T20:22:34.289Z,10.34
2023-02-20T20:25:02.533Z,10.24
2023-02-20T20:27:31.915Z,10.18
2023-02-20T20:30:00.003Z,10.29
2023-02-20T20:32:28.384Z,10.26
2023-02-20T20:34:56.682Z,10.35
2023-02-20T20:37:27.534Z,10.38
2023-02-20T20:39:57.256Z,10.46
2023-02-20T20:42:26.800Z,10.46
2023-02-20T20:44:57.215Z,10.50
2023-02-20T20:47:28.860Z,10.47
2023-02-20T20:49:57.449Z,10.53
2023-02-20T20:52:26.870Z,10.37
2023-02-20T20:54:56.968Z,10.41
2023-02-20T20:57:27.908Z,10.31
2023-02-20T20:59:57.388Z,10.31
2023-02-20T21:02:25.494Z,10.32
2023-02-20T21:05:08.873Z,10.38
2023-02-20T21:07:37.592Z,10.34
2023-02-20T21:10:05.988Z,10.28
2023-02-20T21:12:34.543Z,10.25
2023-02-20T21:15:03.069Z,10.29
2023-02-20T21:17:30.676Z,10.33
2023-02-20T21:20:00.065Z,10.08
2023-02-20T21:22:28.141Z,10.01
2023-02-20T21:24:56.628Z,9.90
2023-02-20T21:27:24.772Z,9.71
2023-02-20T21:29:52.894Z,9.81
2023-02-20T21:32:21.011Z,9.80
2023-02-20T21:34:48.576Z,9.73
2023-02-20T21:37:17.708Z,9.73
2023-02-20T21:39:46.350Z,9.68
2023-02-20T21:42:33.208Z,9.67
2023-02-20T21:45:00.947Z,9.78
2023-02-20T21:47:28.910Z,9.64
2023-02-20T21:49:57.069Z,9.71
2023-02-20T21:52:25.268Z,9.71
2023-02-20T21:54:54.586Z,9.88
2023-02-20T21:57:22.230Z,9.83
2023-02-20T21:59:50.522Z,9.64
2023-02-20T22:02:21.038Z,9.50
2023-02-20T22:04:49.634Z,9.40
2023-02-20T22:07:37.445Z,9.45
2023-02-20T22:10:24.483Z,9.42
2023-02-20T22:13:11.627Z,9.28
2023-02-20T22:15:58.064Z,9.33
2023-02-20T22:18:44.491Z,9.37
2023-02-20T22:21:37.380Z,9.52
2023-02-20T22:24:33.759Z,9.42
2023-02-20T22:27:24.443Z,9.33
2023-02-20T22:30:10.805Z,9.22
2023-02-20T22:32:57.649Z,9.17
2023-02-20T22:35:44.116Z,9.14
2023-02-20T22:38:30.703Z,9.05
2023-02-20T22:41:17.373Z,9.17
2023-02-20T22:44:04.456Z,9.35
2023-02-20T22:46:51.065Z,9.46
2023-02-20T22:49:37.674Z,9.45
2023-02-20T22:52:23.805Z,9.25
2023-02-20T22:55:10.397Z,9.28
2023-02-20T22:57:57.277Z,9.25
2023-02-20T23:00:42.969Z,9.18
2023-02-20T23:03:29.931Z,9.19
2023-02-20T23:06:18.775Z,9.29
2023-02-20T23:09:08.596Z,9.31
2023-02-20T23:11:56.926Z,9.35
2023-02-20T23:14:44.289Z,9.29
2023-02-20T23:17:38.242Z,9.30
2023-02-20T23:20:27.725Z,9.35
2023-02-20T23:23:15.066Z,9.25
2023-02-20T23:26:01.557Z,9.14
2023-02-20T23:28:48.180Z,9.10
2023-02-20T23:31:36.225Z,9.10
2023-02-20T23:34:23.500Z,9.13
2023-02-20T23:37:12.462Z,9.15
2023-02-20T23:39:58.991Z,9.23
2023-02-20T23:42:44.975Z,9.18
2023-02-20T23:45:32.432Z,9.10
2023-02-20T23:48:18.550Z,9.17
2023-02-20T23:51:05.374Z,9.13
2023-02-20T23:53:56.599Z,9.08
2023-02-20T23:56:44.420Z,9.12
2023-02-20T23:59:32.552Z,8.99
